sensor_id;sensor_type;location;lat;lon;timestamp;pressure;altitude;pressure_sealevel;temperature;humidity
15914;BME280;8055;51.930;8.840;2023-09-19T00:00:42;74670.22;;;-145.72;100.00
15914;BME280;8055;51.930;8.840;2023-09-19T00:03:09;74674.34;;;-145.72;100.00
15914;BME280;8055;51.930;8.840;2023-09-19T00:05:36;74670.22;;;-145.72;100.00
15914;BME280;8055;51.930;8.840;2023-09-19T00:08:01;74678.50;;;-145.72;100.00
15914;BME280;8055;51.930;8.840;2023-09-19T00:10:33;74682.63;;;-145.72;100.00
15914;BME280;8055;51.930;8.840;2023-09-19T00:13:02;74692.97;;;-145.72;100.00
15914;BME280;8055;51.930;8.840;2023-09-19T00:15:43;74682.63;;;-145.72;100.00
15914;BME280;8055;51.930;8.840;2023-09-19T00:18:14;74697.09;;;-145.72;100.00
15914;BME280;8055;51.930;8.840;2023-09-19T00:20:41;74709.53;;;-145.72;100.00
15914;BME280;8055;51.930;8.840;2023-09-19T00:23:07;74709.53;;;-145.72;100.00
15914;BME280;8055;51.930;8.840;2023-09-19T00:25:36;74711.59;;;-145.72;100.00
15914;BME280;8055;51.930;8.840;2023-09-19T00:28:03;74711.59;;;-145.72;100.00
15914;BME280;8055;51.930;8.840;2023-09-19T00:30:29;74707.44;;;-145.72;100.00
15914;BME280;8055;51.930;8.840;2023-09-19T00:32:54;74724.00;;;-145.72;100.00
15914;BME280;8055;51.930;8.840;2023-09-19T00:35:21;74719.88;;;-145.72;100.00
15914;BME280;8055;51.930;8.840;2023-09-19T00:37:49;74717.78;;;-145.72;100.00
15914;BME280;8055;51.930;8.840;2023-09-19T00:40:15;74713.66;;;-145.72;100.00
15914;BME280;8055;51.930;8.840;2023-09-19T00:42:45;74732.28;;;-145.72;100.00
15914;BME280;8055;51.930;8.840;2023-09-19T00:45:13;74736.41;;;-145.72;100.00
15914;BME280;8055;51.930;8.840;2023-09-19T00:47:49;74732.28;;;-145.72;100.00
15914;BME280;8055;51.930;8.840;2023-09-19T00:50:16;74728.13;;;-145.72;100.00
15914;BME280;8055;51.930;8.840;2023-09-19T00:52:43;74736.41;;;-145.72;100.00
15914;BME280;8055;51.930;8.840;2023-09-19T00:55:10;74730.22;;;-145.72;100.00
15914;BME280;8055;51.930;8.840;2023-09-19T00:57:37;74719.88;;;-145.72;100.00
15914;BME280;8055;51.930;8.840;2023-09-19T01:00:08;74732.28;;;-145.72;100.00
15914;BME280;8055;51.930;8.840;2023-09-19T01:02:41;74730.22;;;-145.72;100.00
15914;BME280;8055;51.930;8.840;2023-09-19T01:05:08;74728.13;;;-145.72;100.00
15914;BME280;8055;51.930;8.840;2023-09-19T01:07:35;74750.88;;;-145.72;100.00
15914;BME280;8055;51.930;8.840;2023-09-19T01:10:06;74752.97;;;-145.72;100.00
15914;BME280;8055;51.930;8.840;2023-09-19T01:13:13;74748.81;;;-145.72;100.00
15914;BME280;8055;51.930;8.840;2023-09-19T01:15:51;74761.22;;;-145.72;100.00
15914;BME280;8055;51.930;8.840;2023-09-19T01:29:38;74769.50;;;-145.72;100.00
15914;BME280;8055;51.930;8.840;2023-09-19T01:32:05;74771.56;;;-145.72;100.00
15914;BME280;8055;51.930;8.840;2023-09-19T01:34:57;74773.66;;;-145.72;100.00
15914;BME280;8055;51.930;8.840;2023-09-19T01:37:29;74765.38;;;-145.72;100.00
15914;BME280;8055;51.930;8.840;2023-09-19T01:40:01;74775.72;;;-145.72;100.00
15914;BME280;8055;51.930;8.840;2023-09-19T01:46:04;74769.50;;;-145.72;100.00
15914;BME280;8055;51.930;8.840;2023-09-19T01:51:20;74784.00;;;-145.72;100.00
15914;BME280;8055;51.930;8.840;2023-09-19T01:53:55;74792.25;;;-145.72;100.00
15914;BME280;8055;51.930;8.840;2023-09-19T01:56:30;74798.47;;;-145.72;100.00
15914;BME280;8055;51.930;8.840;2023-09-19T01:59:07;74792.25;;;-145.72;100.00
15914;BME280;8055;51.930;8.840;2023-09-19T02:01:34;74804.69;;;-145.72;100.00
15914;BME280;8055;51.930;8.840;2023-09-19T02:04:02;74804.69;;;-145.72;100.00
15914;BME280;8055;51.930;8.840;2023-09-19T02:06:27;74812.94;;;-145.72;100.00
15914;BME280;8055;51.930;8.840;2023-09-19T02:08:54;74812.94;;;-145.72;100.00
15914;BME280;8055;51.930;8.840;2023-09-19T02:11:19;74827.44;;;-145.72;100.00
15914;BME280;8055;51.930;8.840;2023-09-19T02:13:45;74827.44;;;-145.72;100.00
15914;BME280;8055;51.930;8.840;2023-09-19T02:16:10;74835.72;;;-145.72;100.00
15914;BME280;8055;51.930;8.840;2023-09-19T02:18:37;74831.56;;;-145.72;100.00
15914;BME280;8055;51.930;8.840;2023-09-19T02:21:04;74839.84;;;-145.72;100.00
15914;BME280;8055;51.930;8.840;2023-09-19T02:23:32;74841.91;;;-145.72;100.00
15914;BME280;8055;51.930;8.840;2023-09-19T02:25:58;74841.91;;;-145.72;100.00
15914;BME280;8055;51.930;8.840;2023-09-19T02:28:26;74856.41;;;-145.72;100.00
15914;BME280;8055;51.930;8.840;2023-09-19T02:30:55;74850.19;;;-145.72;100.00
15914;BME280;8055;51.930;8.840;2023-09-19T02:33:21;74856.41;;;-145.72;100.00
15914;BME280;8055;51.930;8.840;2023-09-19T02:35:47;74854.31;;;-145.72;100.00
15914;BME280;8055;51.930;8.840;2023-09-19T02:38:12;74862.59;;;-145.72;100.00
15914;BME280;8055;51.930;8.840;2023-09-19T02:40:38;74860.53;;;-145.72;100.00
15914;BME280;8055;51.930;8.840;2023-09-19T02:43:04;74864.66;;;-145.72;100.00
15914;BME280;8055;51.930;8.840;2023-09-19T02:45:30;74870.88;;;-145.72;100.00
15914;BME280;8055;51.930;8.840;2023-09-19T02:47:56;74877.09;;;-145.72;100.00
15914;BME280;8055;51.930;8.840;2023-09-19T02:50:22;74856.41;;;-145.72;100.00
15914;BME280;8055;51.930;8.840;2023-09-19T02:52:48;74864.66;;;-145.72;100.00
15914;BME280;8055;51.930;8.840;2023-09-19T02:55:15;74860.53;;;-145.72;100.00
15914;BME280;8055;51.930;8.840;2023-09-19T02:57:49;74872.94;;;-145.72;100.00
15914;BME280;8055;51.930;8.840;2023-09-19T03:00:17;74885.34;;;-145.72;100.00
15914;BME280;8055;51.930;8.840;2023-09-19T03:02:47;74875.00;;;-145.72;100.00
15914;BME280;8055;51.930;8.840;2023-09-19T03:05:13;74870.88;;;-145.72;100.00
15914;BME280;8055;51.930;8.840;2023-09-19T03:07:38;74889.50;;;-145.72;100.00
15914;BME280;8055;51.930;8.840;2023-09-19T03:10:06;74883.28;;;-145.72;100.00
15914;BME280;8055;51.930;8.840;2023-09-19T03:12:32;74885.34;;;-145.72;100.00
15914;BME280;8055;51.930;8.840;2023-09-19T03:14:59;74893.63;;;-145.72;100.00
15914;BME280;8055;51.930;8.840;2023-09-19T03:17:25;74899.84;;;-145.72;100.00
15914;BME280;8055;51.930;8.840;2023-09-19T03:19:50;74897.78;;;-145.72;100.00
15914;BME280;8055;51.930;8.840;2023-09-19T03:22:16;74897.78;;;-145.72;100.00
15914;BME280;8055;51.930;8.840;2023-09-19T03:24:41;74899.84;;;-145.72;100.00
15914;BME280;8055;51.930;8.840;2023-09-19T03:27:09;74916.38;;;-145.72;100.00
15914;BME280;8055;51.930;8.840;2023-09-19T03:29:35;74912.25;;;-145.72;100.00
15914;BME280;8055;51.930;8.840;2023-09-19T03:32:01;74922.59;;;-145.72;100.00
15914;BME280;8055;51.930;8.840;2023-09-19T03:34:27;74914.31;;;-145.72;100.00
15914;BME280;8055;51.930;8.840;2023-09-19T03:36:52;74930.88;;;-145.72;100.00
15914;BME280;8055;51.930;8.840;2023-09-19T03:39:18;74920.53;;;-145.72;100.00
15914;BME280;8055;51.930;8.840;2023-09-19T03:41:44;74932.94;;;-145.72;100.00
15914;BME280;8055;51.930;8.840;2023-09-19T03:44:10;74932.94;;;-145.72;100.00
15914;BME280;8055;51.930;8.840;2023-09-19T03:46:35;74920.53;;;-145.72;100.00
15914;BME280;8055;51.930;8.840;2023-09-19T03:49:01;74924.66;;;-145.72;100.00
15914;BME280;8055;51.930;8.840;2023-09-19T03:51:26;74945.34;;;-145.72;100.00
15914;BME280;8055;51.930;8.840;2023-09-19T03:53:52;74928.81;;;-145.72;100.00
15914;BME280;8055;51.930;8.840;2023-09-19T03:56:18;74926.72;;;-145.72;100.00
15914;BME280;8055;51.930;8.840;2023-09-19T03:58:43;74945.34;;;-145.72;98.37
15914;BME280;8055;51.930;8.840;2023-09-19T04:01:09;74943.28;;;-145.72;100.00
15914;BME280;8055;51.930;8.840;2023-09-19T04:03:35;74939.16;;;-145.72;100.00
15914;BME280;8055;51.930;8.840;2023-09-19T04:06:15;74947.44;;;-145.72;98.48
15914;BME280;8055;51.930;8.840;2023-09-19T04:08:41;74949.50;;;-145.72;97.80
15914;BME280;8055;51.930;8.840;2023-09-19T04:11:06;74957.78;;;-145.72;99.29
15914;BME280;8055;51.930;8.840;2023-09-19T04:13:32;74963.97;;;-145.72;99.76
15914;BME280;8055;51.930;8.840;2023-09-19T04:15:57;74959.84;;;-145.72;98.61
15914;BME280;8055;51.930;8.840;2023-09-19T04:18:22;74968.13;;;-145.72;99.17
15914;BME280;8055;51.930;8.840;2023-09-19T04:20:51;74951.56;;;-145.72;97.30
15914;BME280;8055;51.930;8.840;2023-09-19T04:23:16;74968.13;;;-145.72;97.29
15914;BME280;8055;51.930;8.840;2023-09-19T04:25:43;74959.84;;;-145.72;97.50
15914;BME280;8055;51.930;8.840;2023-09-19T04:28:08;74963.97;;;-145.72;96.08
15914;BME280;8055;51.930;8.840;2023-09-19T04:30:37;74984.66;;;-145.72;97.66
15914;BME280;8055;51.930;8.840;2023-09-19T04:33:03;74986.72;;;-145.72;96.64
15914;BME280;8055;51.930;8.840;2023-09-19T04:35:28;74990.88;;;-145.72;98.70
15914;BME280;8055;51.930;8.840;2023-09-19T04:37:56;75013.63;;;-145.72;98.73
15914;BME280;8055;51.930;8.840;2023-09-19T04:40:22;75001.22;;;-145.72;96.70
15914;BME280;8055;51.930;8.840;2023-09-19T04:42:57;75021.91;;;-145.72;96.89
15914;BME280;8055;51.930;8.840;2023-09-19T04:45:23;75028.09;;;-145.72;98.34
15914;BME280;8055;51.930;8.840;2023-09-19T04:47:49;75034.31;;;-145.72;97.50
15914;BME280;8055;51.930;8.840;2023-09-19T04:50:14;75048.78;;;-145.72;99.63
15914;BME280;8055;51.930;8.840;2023-09-19T04:52:41;75052.94;;;-145.72;97.88
15914;BME280;8055;51.930;8.840;2023-09-19T04:55:09;75042.59;;;-145.72;97.02
15914;BME280;8055;51.930;8.840;2023-09-19T04:57:34;75057.06;;;-145.72;97.33
15914;BME280;8055;51.930;8.840;2023-09-19T05:00:02;75063.28;;;-145.72;97.52
15914;BME280;8055;51.930;8.840;2023-09-19T05:02:31;75057.06;;;-145.72;95.90
15914;BME280;8055;51.930;8.840;2023-09-19T05:04:57;75069.47;;;-145.72;97.25
15914;BME280;8055;51.930;8.840;2023-09-19T05:07:25;75071.56;;;-145.72;97.26
15914;BME280;8055;51.930;8.840;2023-09-19T05:09:51;75083.97;;;-145.72;96.84
15914;BME280;8055;51.930;8.840;2023-09-19T05:12:16;75083.97;;;-145.72;98.29
15914;BME280;8055;51.930;8.840;2023-09-19T05:14:45;75088.09;;;-145.72;95.15
15914;BME280;8055;51.930;8.840;2023-09-19T05:17:10;75094.31;;;-145.72;95.35
15914;BME280;8055;51.930;8.840;2023-09-19T05:19:35;75094.31;;;-145.72;96.31
15914;BME280;8055;51.930;8.840;2023-09-19T05:22:02;75098.44;;;-145.72;95.67
15914;BME280;8055;51.930;8.840;2023-09-19T05:24:30;75096.38;;;-145.72;96.04
15914;BME280;8055;51.930;8.840;2023-09-19T05:26:56;75117.06;;;-145.72;95.49
15914;BME280;8055;51.930;8.840;2023-09-19T05:29:22;75108.78;;;-145.72;94.63
15914;BME280;8055;51.930;8.840;2023-09-19T05:31:48;75110.88;;;-145.72;95.24
15914;BME280;8055;51.930;8.840;2023-09-19T05:34:15;75108.78;;;-145.72;94.49
15914;BME280;8055;51.930;8.840;2023-09-19T05:36:41;75110.88;;;-145.72;93.92
15914;BME280;8055;51.930;8.840;2023-09-19T05:39:07;75119.13;;;-145.72;94.42
15914;BME280;8055;51.930;8.840;2023-09-19T05:41:35;75131.56;;;-145.72;93.97
15914;BME280;8055;51.930;8.840;2023-09-19T05:44:05;75123.28;;;-145.72;92.50
15914;BME280;8055;51.930;8.840;2023-09-19T05:46:32;75141.91;;;-145.72;92.72
15914;BME280;8055;51.930;8.840;2023-09-19T05:48:57;75148.09;;;-145.72;94.66
15914;BME280;8055;51.930;8.840;2023-09-19T05:51:23;75146.03;;;-145.72;92.13
15914;BME280;8055;51.930;8.840;2023-09-19T05:53:48;75152.25;;;-145.72;92.84
15914;BME280;8055;51.930;8.840;2023-09-19T05:56:15;75162.59;;;-145.72;93.49
15914;BME280;8055;51.930;8.840;2023-09-19T05:58:41;75160.50;;;-145.72;93.70
15914;BME280;8055;51.930;8.840;2023-09-19T06:01:09;75162.59;;;-145.72;93.04
15914;BME280;8055;51.930;8.840;2023-09-19T06:03:35;75162.59;;;-145.72;92.44
15914;BME280;8055;51.930;8.840;2023-09-19T06:06:01;75162.59;;;-145.72;91.26
15914;BME280;8055;51.930;8.840;2023-09-19T06:08:27;75148.09;;;-145.72;91.90
15914;BME280;8055;51.930;8.840;2023-09-19T06:10:53;75160.50;;;-145.72;91.38
15914;BME280;8055;51.930;8.840;2023-09-19T06:13:19;75162.59;;;-145.72;91.78
15914;BME280;8055;51.930;8.840;2023-09-19T06:15:45;75158.44;;;-145.72;91.63
15914;BME280;8055;51.930;8.840;2023-09-19T06:18:13;75154.31;;;-145.72;91.03
15914;BME280;8055;51.930;8.840;2023-09-19T06:20:48;75137.75;;;-145.72;90.05
15914;BME280;8055;51.930;8.840;2023-09-19T06:23:16;75150.16;;;-145.72;89.18
15914;BME280;8055;51.930;8.840;2023-09-19T06:25:43;75141.91;;;-145.72;90.44
15914;BME280;8055;51.930;8.840;2023-09-19T06:28:09;75125.34;;;-145.72;89.46
15914;BME280;8055;51.930;8.840;2023-09-19T06:30:38;75127.41;;;-145.72;89.39
15914;BME280;8055;51.930;8.840;2023-09-19T06:33:07;75119.13;;;-145.72;87.08
15914;BME280;8055;51.930;8.840;2023-09-19T06:35:33;75104.66;;;-145.72;88.97
15914;BME280;8055;51.930;8.840;2023-09-19T06:38:02;75112.94;;;-145.72;88.83
15914;BME280;8055;51.930;8.840;2023-09-19T06:40:28;75104.66;;;-145.72;89.45
15914;BME280;8055;51.930;8.840;2023-09-19T06:42:56;75098.44;;;-145.72;89.20
15914;BME280;8055;51.930;8.840;2023-09-19T06:45:22;75088.09;;;-145.72;89.49
15914;BME280;8055;51.930;8.840;2023-09-19T06:47:49;75075.69;;;-145.72;89.64
15914;BME280;8055;51.930;8.840;2023-09-19T06:50:16;75073.63;;;-145.72;87.39
15914;BME280;8055;51.930;8.840;2023-09-19T06:52:45;75067.41;;;-145.72;87.01
15914;BME280;8055;51.930;8.840;2023-09-19T06:55:11;75063.28;;;-145.72;86.42
15914;BME280;8055;51.930;8.840;2023-09-19T06:57:39;75055.00;;;-145.72;87.06
15914;BME280;8055;51.930;8.840;2023-09-19T07:00:06;75055.00;;;-145.72;83.80
15914;BME280;8055;51.930;8.840;2023-09-19T07:02:43;75055.00;;;-145.72;85.99
15914;BME280;8055;51.930;8.840;2023-09-19T07:05:09;75061.22;;;-145.72;84.76
15914;BME280;8055;51.930;8.840;2023-09-19T07:07:35;75050.88;;;-145.72;84.90
15914;BME280;8055;51.930;8.840;2023-09-19T07:10:02;75052.94;;;-145.72;84.47
15914;BME280;8055;51.930;8.840;2023-09-19T07:12:28;75059.13;;;-145.72;85.41
15914;BME280;8055;51.930;8.840;2023-09-19T07:14:53;75067.41;;;-145.72;87.06
15914;BME280;8055;51.930;8.840;2023-09-19T07:17:19;75069.47;;;-145.72;85.11
15914;BME280;8055;51.930;8.840;2023-09-19T07:19:45;75075.69;;;-145.72;84.61
15914;BME280;8055;51.930;8.840;2023-09-19T07:22:10;75086.03;;;-145.72;85.31
15914;BME280;8055;51.930;8.840;2023-09-19T07:24:36;75081.91;;;-145.72;85.50
15914;BME280;8055;51.930;8.840;2023-09-19T07:27:02;75077.75;;;-145.72;84.24
15914;BME280;8055;51.930;8.840;2023-09-19T07:29:28;75081.91;;;-145.72;86.50
15914;BME280;8055;51.930;8.840;2023-09-19T07:31:53;75081.91;;;-145.72;86.50
15914;BME280;8055;51.930;8.840;2023-09-19T07:34:19;75092.25;;;-145.72;86.00
15914;BME280;8055;51.930;8.840;2023-09-19T07:36:47;75092.25;;;-145.72;85.77
15914;BME280;8055;51.930;8.840;2023-09-19T07:39:13;75092.25;;;-145.72;85.32
15914;BME280;8055;51.930;8.840;2023-09-19T07:41:39;75083.97;;;-145.72;85.28
15914;BME280;8055;51.930;8.840;2023-09-19T07:44:04;75086.03;;;-145.72;84.50
15914;BME280;8055;51.930;8.840;2023-09-19T07:46:30;75075.69;;;-145.72;82.98
15914;BME280;8055;51.930;8.840;2023-09-19T07:48:59;75063.28;;;-145.72;84.61
15914;BME280;8055;51.930;8.840;2023-09-19T07:51:25;75063.28;;;-145.72;83.12
15914;BME280;8055;51.930;8.840;2023-09-19T07:53:52;75048.78;;;-145.72;84.24
15914;BME280;8055;51.930;8.840;2023-09-19T07:56:18;75026.03;;;-145.72;83.27
15914;BME280;8055;51.930;8.840;2023-09-19T07:58:46;75026.03;;;-145.72;81.60
15914;BME280;8055;51.930;8.840;2023-09-19T08:01:12;75028.09;;;-145.72;81.76
15914;BME280;8055;51.930;8.840;2023-09-19T08:03:38;75013.63;;;-145.72;81.26
15914;BME280;8055;51.930;8.840;2023-09-19T08:06:06;75005.34;;;-145.72;80.74
15914;BME280;8055;51.930;8.840;2023-09-19T08:08:33;75017.75;;;-145.72;79.25
15914;BME280;8055;51.930;8.840;2023-09-19T08:11:05;75015.69;;;-145.72;80.50
15914;BME280;8055;51.930;8.840;2023-09-19T08:13:39;75011.56;;;-145.72;83.04
15914;BME280;8055;51.930;8.840;2023-09-19T08:16:16;75011.56;;;-145.72;81.24
15914;BME280;8055;51.930;8.840;2023-09-19T08:18:47;75005.34;;;-145.72;79.56
15914;BME280;8055;51.930;8.840;2023-09-19T08:21:13;75003.28;;;-145.72;80.15
15914;BME280;8055;51.930;8.840;2023-09-19T08:23:39;75005.34;;;-145.72;79.47
15914;BME280;8055;51.930;8.840;2023-09-19T08:26:05;75007.41;;;-145.72;81.62
15914;BME280;8055;51.930;8.840;2023-09-19T08:28:34;75007.41;;;-145.72;81.26
15914;BME280;8055;51.930;8.840;2023-09-19T08:31:07;74990.88;;;-145.72;81.74
15914;BME280;8055;51.930;8.840;2023-09-19T08:33:36;74974.31;;;-145.72;81.63
15914;BME280;8055;51.930;8.840;2023-09-19T08:36:03;74970.19;;;-145.72;80.40
15914;BME280;8055;51.930;8.840;2023-09-19T08:38:33;74963.97;;;-145.72;78.71
15914;BME280;8055;51.930;8.840;2023-09-19T08:41:00;74949.50;;;-145.72;78.42
15914;BME280;8055;51.930;8.840;2023-09-19T08:43:26;74951.56;;;-145.72;79.65
15914;BME280;8055;51.930;8.840;2023-09-19T08:46:18;74957.78;;;-145.72;78.75
15914;BME280;8055;51.930;8.840;2023-09-19T08:48:46;74953.63;;;-145.72;78.70
15914;BME280;8055;51.930;8.840;2023-09-19T08:51:26;74947.44;;;-145.72;78.02
15914;BME280;8055;51.930;8.840;2023-09-19T08:53:59;74957.78;;;-145.72;78.38
15914;BME280;8055;51.930;8.840;2023-09-19T08:56:29;74957.78;;;-145.72;78.87
15914;BME280;8055;51.930;8.840;2023-09-19T08:59:00;74957.78;;;-145.72;79.09
15914;BME280;8055;51.930;8.840;2023-09-19T09:01:28;74951.56;;;-145.72;78.47
15914;BME280;8055;51.930;8.840;2023-09-19T09:03:55;74941.22;;;-145.72;79.62
15914;BME280;8055;51.930;8.840;2023-09-19T09:06:22;74949.50;;;-145.72;78.86
15914;BME280;8055;51.930;8.840;2023-09-19T09:08:50;74939.16;;;-145.72;77.63
15914;BME280;8055;51.930;8.840;2023-09-19T09:11:16;74947.44;;;-145.72;78.28
15914;BME280;8055;51.930;8.840;2023-09-19T09:13:44;74951.56;;;-145.72;77.20
15914;BME280;8055;51.930;8.840;2023-09-19T09:16:10;74947.44;;;-145.72;77.51
15914;BME280;8055;51.930;8.840;2023-09-19T09:18:36;74928.81;;;-145.72;77.14
15914;BME280;8055;51.930;8.840;2023-09-19T09:21:03;74951.56;;;-145.72;80.25
15914;BME280;8055;51.930;8.840;2023-09-19T09:23:30;74937.06;;;-145.72;80.56
15914;BME280;8055;51.930;8.840;2023-09-19T09:25:57;74928.81;;;-145.72;78.88
15914;BME280;8055;51.930;8.840;2023-09-19T09:28:26;74926.72;;;-145.72;78.96
15914;BME280;8055;51.930;8.840;2023-09-19T09:30:53;74914.31;;;-145.72;79.86
15914;BME280;8055;51.930;8.840;2023-09-19T09:33:19;74901.91;;;-145.72;78.12
15914;BME280;8055;51.930;8.840;2023-09-19T09:38:20;74906.03;;;-145.72;79.22
15914;BME280;8055;51.930;8.840;2023-09-19T09:40:50;74889.50;;;-145.72;78.26
15914;BME280;8055;51.930;8.840;2023-09-19T09:43:34;74897.78;;;-145.72;76.30
15914;BME280;8055;51.930;8.840;2023-09-19T09:46:14;74893.63;;;-145.72;77.79
15914;BME280;8055;51.930;8.840;2023-09-19T09:48:46;74903.97;;;-145.72;75.95
15914;BME280;8055;51.930;8.840;2023-09-19T09:51:32;74891.56;;;-145.72;77.09
15914;BME280;8055;51.930;8.840;2023-09-19T09:54:14;74883.28;;;-145.72;77.54
15914;BME280;8055;51.930;8.840;2023-09-19T09:57:06;74879.16;;;-145.72;76.81
15914;BME280;8055;51.930;8.840;2023-09-19T09:59:49;74877.09;;;-145.72;75.57
15914;BME280;8055;51.930;8.840;2023-09-19T10:02:29;74870.88;;;-145.72;76.69
15914;BME280;8055;51.930;8.840;2023-09-19T10:05:11;74862.59;;;-145.72;75.83
15914;BME280;8055;51.930;8.840;2023-09-19T10:08:10;74848.13;;;-145.72;76.86
15914;BME280;8055;51.930;8.840;2023-09-19T10:10:39;74841.91;;;-145.72;74.32
15914;BME280;8055;51.930;8.840;2023-09-19T10:13:19;74837.78;;;-145.72;73.79
15914;BME280;8055;51.930;8.840;2023-09-19T10:15:51;74827.44;;;-145.72;73.06
15914;BME280;8055;51.930;8.840;2023-09-19T10:18:24;74806.75;;;-145.72;73.32
15914;BME280;8055;51.930;8.840;2023-09-19T10:20:51;74825.38;;;-145.72;72.73
15914;BME280;8055;51.930;8.840;2023-09-19T10:23:19;74829.50;;;-145.72;69.88
15914;BME280;8055;51.930;8.840;2023-09-19T10:25:49;74831.56;;;-145.72;71.10
15914;BME280;8055;51.930;8.840;2023-09-19T10:28:16;74825.38;;;-145.72;72.04
15914;BME280;8055;51.930;8.840;2023-09-19T10:30:47;74835.72;;;-145.72;71.46
15914;BME280;8055;51.930;8.840;2023-09-19T10:33:19;74827.44;;;-145.72;71.82
15914;BME280;8055;51.930;8.840;2023-09-19T10:35:51;74825.38;;;-145.72;71.93
15914;BME280;8055;51.930;8.840;2023-09-19T10:38:19;74821.22;;;-145.72;69.66
15914;BME280;8055;51.930;8.840;2023-09-19T10:40:54;74821.22;;;-145.72;69.16
15914;BME280;8055;51.930;8.840;2023-09-19T10:43:21;74806.75;;;-145.72;67.85
15914;BME280;8055;51.930;8.840;2023-09-19T10:45:50;74819.16;;;-145.72;68.59
15914;BME280;8055;51.930;8.840;2023-09-19T10:48:18;74819.16;;;-145.72;69.21
15914;BME280;8055;51.930;8.840;2023-09-19T10:50:52;74825.38;;;-145.72;66.45
15914;BME280;8055;51.930;8.840;2023-09-19T10:53:26;74804.69;;;-145.72;67.47
15914;BME280;8055;51.930;8.840;2023-09-19T10:55:56;74810.88;;;-145.72;66.38
15914;BME280;8055;51.930;8.840;2023-09-19T10:58:27;74806.75;;;-145.72;68.52
15914;BME280;8055;51.930;8.840;2023-09-19T11:00:56;74798.47;;;-145.72;67.83
15914;BME280;8055;51.930;8.840;2023-09-19T11:03:23;74775.72;;;-145.72;67.42
15914;BME280;8055;51.930;8.840;2023-09-19T11:06:08;74761.22;;;-145.72;69.72
15914;BME280;8055;51.930;8.840;2023-09-19T11:30:35;74570.91;;;-145.72;61.54
15914;BME280;8055;51.930;8.840;2023-09-19T11:33:30;74568.84;;;-145.72;58.61
15914;BME280;8055;51.930;8.840;2023-09-19T11:36:08;74573.00;;;-145.72;58.95
15914;BME280;8055;51.930;8.840;2023-09-19T11:46:51;74585.41;;;-145.72;61.32
15914;BME280;8055;51.930;8.840;2023-09-19T11:49:31;74595.75;;;-145.72;58.03
15914;BME280;8055;51.930;8.840;2023-09-19T11:51:59;74610.22;;;-145.72;59.44
15914;BME280;8055;51.930;8.840;2023-09-19T11:54:31;74585.41;;;-145.72;60.36
15914;BME280;8055;51.930;8.840;2023-09-19T11:56:58;74579.19;;;-145.72;61.97
15914;BME280;8055;51.930;8.840;2023-09-19T11:59:25;74564.72;;;-145.72;61.79
15914;BME280;8055;51.930;8.840;2023-09-19T12:02:06;74562.66;;;-145.72;58.27
15914;BME280;8055;51.930;8.840;2023-09-19T12:04:37;74573.00;;;-145.72;56.08
15914;BME280;8055;51.930;8.840;2023-09-19T12:07:14;74539.88;;;-145.72;57.68
15914;BME280;8055;51.930;8.840;2023-09-19T12:09:45;74562.66;;;-145.72;57.36
15914;BME280;8055;51.930;8.840;2023-09-19T12:12:25;74554.38;;;-145.72;56.47
15914;BME280;8055;51.930;8.840;2023-09-19T12:14:55;74544.03;;;-145.72;58.24
15914;BME280;8055;51.930;8.840;2023-09-19T12:17:44;74531.63;;;-145.72;58.88
15914;BME280;8055;51.930;8.840;2023-09-19T12:20:12;74500.59;;;-145.72;57.22
15914;BME280;8055;51.930;8.840;2023-09-19T12:22:42;74477.84;;;-145.72;57.12
15914;BME280;8055;51.930;8.840;2023-09-19T12:25:09;74475.75;;;-145.72;56.59
15914;BME280;8055;51.930;8.840;2023-09-19T12:27:47;74494.38;;;-145.72;56.96
15914;BME280;8055;51.930;8.840;2023-09-19T12:30:13;74525.41;;;-145.72;57.32
15914;BME280;8055;51.930;8.840;2023-09-19T12:32:40;74535.75;;;-145.72;56.17
15914;BME280;8055;51.930;8.840;2023-09-19T12:35:08;74546.09;;;-145.72;57.39
15914;BME280;8055;51.930;8.840;2023-09-19T12:37:45;74560.56;;;-145.72;57.54
15914;BME280;8055;51.930;8.840;2023-09-19T12:40:21;74573.00;;;-145.72;57.89
15914;BME280;8055;51.930;8.840;2023-09-19T12:42:50;74573.00;;;-145.72;59.90
15914;BME280;8055;51.930;8.840;2023-09-19T12:45:18;74566.78;;;-145.72;60.00
15914;BME280;8055;51.930;8.840;2023-09-19T12:48:22;74529.53;;;-145.72;59.05
15914;BME280;8055;51.930;8.840;2023-09-19T12:51:07;74488.19;;;-145.72;58.18
15914;BME280;8055;51.930;8.840;2023-09-19T12:56:11;74438.53;;;-145.72;58.24
15914;BME280;8055;51.930;8.840;2023-09-19T12:58:52;74421.97;;;-145.72;59.32
15914;BME280;8055;51.930;8.840;2023-09-19T13:01:20;74419.91;;;-145.72;58.81
15914;BME280;8055;51.930;8.840;2023-09-19T13:03:45;74407.50;;;-145.72;57.52
15914;BME280;8055;51.930;8.840;2023-09-19T13:06:11;74401.28;;;-145.72;59.21
15914;BME280;8055;51.930;8.840;2023-09-19T13:08:38;74409.56;;;-145.72;55.75
15914;BME280;8055;51.930;8.840;2023-09-19T13:11:12;74395.09;;;-145.72;56.96
15914;BME280;8055;51.930;8.840;2023-09-19T13:13:39;74403.38;;;-145.72;58.21
15914;BME280;8055;51.930;8.840;2023-09-19T13:16:05;74382.69;;;-145.72;55.42
15914;BME280;8055;51.930;8.840;2023-09-19T13:18:44;74378.53;;;-145.72;55.99
15914;BME280;8055;51.930;8.840;2023-09-19T13:21:13;74364.06;;;-145.72;53.71
15914;BME280;8055;51.930;8.840;2023-09-19T13:23:55;74353.72;;;-145.72;57.29
15914;BME280;8055;51.930;8.840;2023-09-19T13:26:27;74384.75;;;-145.72;51.70
15914;BME280;8055;51.930;8.840;2023-09-19T13:28:56;74405.44;;;-145.72;54.08
15914;BME280;8055;51.930;8.840;2023-09-19T13:31:21;74438.53;;;-145.72;53.17
15914;BME280;8055;51.930;8.840;2023-09-19T13:33:48;74428.19;;;-145.72;52.51
15914;BME280;8055;51.930;8.840;2023-09-19T13:36:15;74438.53;;;-145.72;55.90
15914;BME280;8055;51.930;8.840;2023-09-19T13:38:41;74457.16;;;-145.72;54.06
15914;BME280;8055;51.930;8.840;2023-09-19T13:41:10;74448.88;;;-145.72;57.42
15914;BME280;8055;51.930;8.840;2023-09-19T13:43:39;74444.72;;;-145.72;54.89
15914;BME280;8055;51.930;8.840;2023-09-19T13:46:05;74438.53;;;-145.72;56.61
15914;BME280;8055;51.930;8.840;2023-09-19T13:48:33;74403.38;;;-145.72;56.38
15914;BME280;8055;51.930;8.840;2023-09-19T13:51:02;74405.44;;;-145.72;56.34